Time;durP1;ratioP1;P1;durP2;ratioP2;P2;SDS_P1;SDS_P2;PMS_P1;PMS_P2;Temp;Humidity;BMP_temperature;BMP_pressure;BME280_temperature;BME280_humidity;BME280_pressure;Samples;Min_cycle;Max_cycle;Signal;HPM_P1;HPM_P2
2024/01/04 00:00:56;;;;;;;2.58;0.93;;;;;;;4.77;100.00;92649.78;5047540;28;20045;-69
2024/01/04 00:03:24;;;;;;;2.80;0.90;;;;;;;4.67;100.00;92669.72;5048086;28;20052;-68
2024/01/04 00:05:51;;;;;;;4.63;1.23;;;;;;;4.68;100.00;92659.63;5046869;28;20604;-68
2024/01/04 00:08:18;;;;;;;3.50;1.00;;;;;;;4.70;100.00;92668.13;5047690;28;20041;-69
2024/01/04 00:10:46;;;;;;;3.00;1.08;;;;;;;4.76;100.00;92658.34;5043754;28;20053;-69
2024/01/04 00:13:13;;;;;;;2.13;1.00;;;;;;;4.76;100.00;92656.38;5032249;28;20053;-69
2024/01/04 00:15:39;;;;;;;2.40;0.60;;;;;;;4.75;100.00;92667.69;5047473;28;20041;-70
2024/01/04 00:18:06;;;;;;;17.70;7.25;;;;;;;4.79;100.00;92660.25;5047452;28;20441;-69
2024/01/04 00:20:33;;;;;;;2.97;1.05;;;;;;;4.87;100.00;92664.41;5048219;28;20686;-68
2024/01/04 00:23:00;;;;;;;5.35;1.02;;;;;;;4.83;100.00;92671.06;5047402;28;20041;-68
2024/01/04 00:25:27;;;;;;;2.38;0.88;;;;;;;4.83;100.00;92668.34;5047916;28;20053;-68
2024/01/04 00:27:53;;;;;;;3.90;0.90;;;;;;;4.86;100.00;92672.97;5052182;28;20061;-67
2024/01/04 00:30:20;;;;;;;3.83;1.23;;;;;;;4.80;100.00;92675.38;5068275;28;20371;-70
2024/01/04 00:32:47;;;;;;;2.53;0.70;;;;;;;4.79;100.00;92677.31;5067636;28;20109;-68
2024/01/04 00:35:14;;;;;;;5.30;0.63;;;;;;;4.71;100.00;92675.88;5048235;28;20045;-69
2024/01/04 00:37:41;;;;;;;3.70;0.80;;;;;;;4.68;100.00;92665.06;5065868;28;20037;-69
2024/01/04 00:40:08;;;;;;;3.60;0.87;;;;;;;4.58;100.00;92672.94;5067534;28;20079;-69
2024/01/04 00:42:35;;;;;;;1.90;0.80;;;;;;;4.62;100.00;92689.19;5067629;28;20493;-69
2024/01/04 00:45:03;;;;;;;3.25;1.00;;;;;;;4.69;100.00;92685.59;5067572;28;20048;-68
2024/01/04 00:47:29;;;;;;;2.50;0.85;;;;;;;4.79;100.00;92693.63;5031961;28;20042;-69
2024/01/04 00:49:56;;;;;;;4.53;0.98;;;;;;;4.80;100.00;92694.41;5037603;28;20045;-69
2024/01/04 00:52:24;;;;;;;3.33;1.00;;;;;;;4.90;100.00;92695.44;5048185;28;20040;-69
2024/01/04 00:54:50;;;;;;;4.43;0.80;;;;;;;4.91;100.00;92683.38;5067105;28;20052;-69
2024/01/04 00:57:17;;;;;;;2.88;0.93;;;;;;;4.90;100.00;92698.91;5052886;28;21550;-69
2024/01/04 00:59:44;;;;;;;3.90;0.70;;;;;;;4.85;100.00;92693.16;5070242;28;20052;-69
2024/01/04 01:02:11;;;;;;;2.45;0.90;;;;;;;4.73;100.00;92698.00;5071582;28;20057;-68
2024/01/04 01:04:37;;;;;;;2.60;0.70;;;;;;;4.76;100.00;92699.13;5071342;28;20410;-68
2024/01/04 01:07:04;;;;;;;3.15;0.95;;;;;;;4.68;100.00;92679.41;5071039;28;20097;-70
2024/01/04 01:09:31;;;;;;;3.72;1.10;;;;;;;4.61;100.00;92679.50;5071111;28;20048;-69
2024/01/04 01:11:58;;;;;;;3.65;1.15;;;;;;;4.52;100.00;92680.00;5071281;28;20120;-68
2024/01/04 01:14:25;;;;;;;3.83;0.90;;;;;;;4.59;100.00;92681.88;5071473;28;20033;-71
2024/01/04 01:16:51;;;;;;;4.43;0.70;;;;;;;4.59;100.00;92690.03;5070402;28;20033;-68
2024/01/04 01:19:18;;;;;;;2.35;1.05;;;;;;;4.63;100.00;92690.75;5071081;28;20454;-69
2024/01/04 01:21:45;;;;;;;4.13;1.10;;;;;;;4.66;100.00;92691.88;5070974;28;20060;-71
2024/01/04 01:24:12;;;;;;;2.03;0.80;;;;;;;4.73;100.00;92697.22;5070906;28;20055;-69
2024/01/04 01:26:39;;;;;;;2.85;0.80;;;;;;;4.77;100.00;92696.00;5070433;28;20044;-71
2024/01/04 01:29:06;;;;;;;3.90;0.80;;;;;;;4.67;100.00;92698.81;5069470;28;20044;-69
2024/01/04 01:31:39;;;;;;;3.10;0.80;;;;;;;4.67;100.00;92699.63;5070639;28;20046;-69
2024/01/04 01:34:06;;;;;;;3.17;1.00;;;;;;;4.67;100.00;92709.69;5070231;28;20428;-68
2024/01/04 01:36:33;;;;;;;2.97;0.80;;;;;;;4.66;100.00;92719.81;5070931;28;20037;-68
2024/01/04 01:38:59;;;;;;;2.10;0.82;;;;;;;4.72;100.00;92712.75;5102992;28;20386;-69
2024/01/04 01:41:26;;;;;;;2.40;0.83;;;;;;;4.70;100.00;92717.81;5070334;28;20040;-69
2024/01/04 01:43:53;;;;;;;4.13;0.90;;;;;;;4.80;100.00;92716.16;5070148;28;20049;-69
2024/01/04 01:46:20;;;;;;;1.95;0.85;;;;;;;4.72;100.00;92706.53;5070628;28;20044;-68
2024/01/04 01:48:46;;;;;;;2.47;0.80;;;;;;;4.77;100.00;92720.44;5070612;28;20040;-69
2024/01/04 01:51:14;;;;;;;2.70;0.80;;;;;;;4.67;100.00;92713.22;5097231;28;20037;-68
2024/01/04 01:53:42;;;;;;;3.20;0.80;;;;;;;4.64;100.00;92700.41;5062894;28;20040;-69
2024/01/04 01:56:09;;;;;;;3.35;0.70;;;;;;;4.66;100.00;92705.47;5070309;28;20041;-69
2024/01/04 01:58:36;;;;;;;3.25;0.95;;;;;;;4.66;100.00;92725.25;5069731;28;20641;-69
2024/01/04 02:01:03;;;;;;;3.15;0.80;;;;;;;4.74;100.00;92737.56;5069557;28;20714;-69
2024/01/04 02:03:30;;;;;;;3.78;0.80;;;;;;;4.80;100.00;92729.72;5070712;28;20477;-70
2024/01/04 02:05:57;;;;;;;3.07;1.00;;;;;;;4.79;100.00;92739.09;5069073;28;20436;-69
2024/01/04 02:08:24;;;;;;;2.97;1.02;;;;;;;4.82;100.00;92740.97;5070316;28;20048;-69
2024/01/04 02:10:51;;;;;;;2.25;0.70;;;;;;;4.85;100.00;92733.94;5069254;28;20686;-67
2024/01/04 02:13:17;;;;;;;4.07;0.80;;;;;;;4.90;100.00;92736.22;5070394;28;20128;-69
2024/01/04 02:15:44;;;;;;;2.22;0.70;;;;;;;4.92;100.00;92733.84;5069657;28;20040;-69
2024/01/04 02:18:11;;;;;;;2.53;0.60;;;;;;;4.88;100.00;92735.84;5069719;28;20052;-69
2024/01/04 02:20:38;;;;;;;2.30;0.70;;;;;;;4.82;100.00;92740.22;5069775;28;20049;-70
2024/01/04 02:23:04;;;;;;;2.90;1.10;;;;;;;4.90;100.00;92756.00;5069791;28;20037;-69
2024/01/04 02:25:31;;;;;;;2.58;0.90;;;;;;;4.83;100.00;92753.41;5044103;28;20070;-69
2024/01/04 02:27:58;;;;;;;1.65;0.80;;;;;;;4.91;100.00;92762.22;5069333;28;20047;-67
2024/01/04 02:30:25;;;;;;;2.77;0.57;;;;;;;4.93;100.00;92752.47;5070091;28;20040;-69
2024/01/04 02:32:51;;;;;;;2.20;0.70;;;;;;;4.86;100.00;92754.53;5101257;28;20051;-68
2024/01/04 02:35:19;;;;;;;2.88;0.77;;;;;;;4.87;100.00;92772.34;5069841;28;20042;-69
2024/01/04 02:37:45;;;;;;;3.63;0.90;;;;;;;4.79;100.00;92772.47;5067645;28;20044;-69
2024/01/04 02:40:12;;;;;;;2.78;0.80;;;;;;;4.73;100.00;92782.25;5058884;28;20049;-69
2024/01/04 02:42:39;;;;;;;3.10;0.70;;;;;;;4.75;100.00;92790.75;5049972;28;20045;-69
2024/01/04 02:45:06;;;;;;;2.53;0.60;;;;;;;4.71;100.00;92800.09;5067137;28;20059;-69
2024/01/04 02:47:34;;;;;;;2.30;0.90;;;;;;;4.74;100.00;92783.75;5068753;28;20048;-70
2024/01/04 02:50:01;;;;;;;1.80;0.80;;;;;;;4.62;100.00;92786.25;5069098;28;20044;-68
2024/01/04 02:52:28;;;;;;;2.05;0.93;;;;;;;4.56;100.00;92781.25;5069752;28;20396;-69
2024/01/04 02:54:54;;;;;;;2.50;0.70;;;;;;;4.52;100.00;92790.63;5068225;28;20578;-69
2024/01/04 02:57:21;;;;;;;2.97;0.70;;;;;;;4.48;100.00;92795.31;5068156;28;20052;-69
2024/01/04 02:59:48;;;;;;;1.88;0.90;;;;;;;4.51;100.00;92803.44;5068662;28;20053;-68
2024/01/04 03:02:15;;;;;;;2.20;0.60;;;;;;;4.56;100.00;92799.50;5068741;28;20124;-70
2024/01/04 03:04:42;;;;;;;1.88;0.80;;;;;;;4.58;100.00;92803.34;5068912;28;20047;-70
2024/01/04 03:07:09;;;;;;;3.63;0.90;;;;;;;4.68;100.00;92801.69;5069168;28;20051;-71
2024/01/04 03:09:35;;;;;;;1.50;0.60;;;;;;;4.67;100.00;92802.88;5067035;28;20050;-70
2024/01/04 03:12:03;;;;;;;3.65;0.95;;;;;;;4.76;100.00;92795.00;5068935;28;20129;-70
2024/01/04 03:14:30;;;;;;;1.95;0.75;;;;;;;4.79;100.00;92798.88;5069033;28;20044;-70
2024/01/04 03:16:56;;;;;;;2.83;0.90;;;;;;;4.57;100.00;92814.66;5067812;28;20057;-70
2024/01/04 03:19:23;;;;;;;1.80;0.73;;;;;;;4.49;100.00;92805.78;5068903;28;20037;-69
2024/01/04 03:21:50;;;;;;;2.28;0.70;;;;;;;4.45;100.00;92788.75;5068113;28;20050;-71
2024/01/04 03:24:17;;;;;;;3.42;0.90;;;;;;;4.50;100.00;92803.84;5068052;28;20704;-70
2024/01/04 03:26:43;;;;;;;2.38;0.73;;;;;;;4.65;100.00;92809.88;5068250;28;20485;-70
2024/01/04 03:29:10;;;;;;;2.63;0.88;;;;;;;4.60;100.00;92794.81;5068496;28;20497;-69
2024/01/04 03:31:37;;;;;;;2.73;0.80;;;;;;;4.60;100.00;92819.25;5068053;28;20063;-70
2024/01/04 03:34:04;;;;;;;1.70;0.60;;;;;;;4.65;100.00;92826.97;5068595;28;20523;-69
2024/01/04 03:36:31;;;;;;;2.83;1.20;;;;;;;4.68;100.00;92836.25;5068790;28;20064;-71
2024/01/04 03:38:58;;;;;;;3.53;0.70;;;;;;;4.73;100.00;92822.25;5054338;28;20036;-70
2024/01/04 03:41:24;;;;;;;2.20;0.70;;;;;;;4.78;100.00;92835.38;5050406;28;20045;-70
2024/01/04 03:43:51;;;;;;;4.27;0.80;;;;;;;4.76;100.00;92830.34;5055786;28;20051;-68
2024/01/04 03:46:18;;;;;;;3.10;0.93;;;;;;;4.77;100.00;92833.84;5068833;28;20531;-71
2024/01/04 03:48:45;;;;;;;2.92;1.20;;;;;;;4.80;100.00;92833.78;5068339;28;20157;-69
2024/01/04 03:51:13;;;;;;;3.75;0.80;;;;;;;4.74;100.00;92840.84;5067364;28;20041;-71
2024/01/04 03:53:40;;;;;;;3.35;1.20;;;;;;;4.74;100.00;92850.94;5067916;28;20341;-69
2024/01/04 03:56:06;;;;;;;2.07;0.70;;;;;;;4.72;100.00;92854.06;5067977;28;20431;-70
2024/01/04 03:58:34;;;;;;;3.67;0.80;;;;;;;4.70;100.00;92852.94;5068294;28;20405;-71
2024/01/04 04:01:02;;;;;;;2.78;1.00;;;;;;;4.68;100.00;92849.84;5068046;28;20056;-70
2024/01/04 04:03:29;;;;;;;2.63;1.00;;;;;;;4.71;100.00;92851.75;5068621;28;20054;-69
2024/01/04 04:05:56;;;;;;;2.65;1.00;;;;;;;4.68;100.00;92861.47;5066528;28;20408;-71
2024/01/04 04:08:23;;;;;;;2.80;1.00;;;;;;;4.72;100.00;92861.44;5066330;28;20036;-71
2024/01/04 04:10:50;;;;;;;3.58;1.00;;;;;;;4.73;100.00;92866.50;5067834;28;20041;-70
2024/01/04 04:13:17;;;;;;;2.55;1.00;;;;;;;4.72;100.00;92881.25;5067164;28;20072;-70
2024/01/04 04:15:44;;;;;;;2.90;1.08;;;;;;;4.68;100.00;92866.91;5067279;28;20602;-69
2024/01/04 04:18:10;;;;;;;4.00;0.90;;;;;;;4.76;100.00;92867.63;5056138;28;20408;-71
2024/01/04 04:20:37;;;;;;;2.73;0.80;;;;;;;4.64;100.00;92879.00;5066928;28;20121;-70
2024/01/04 04:23:04;;;;;;;2.20;0.85;;;;;;;4.66;100.00;92871.97;5067747;28;20626;-70
2024/01/04 04:25:31;;;;;;;4.20;0.85;;;;;;;4.68;100.00;92856.03;5068123;28;20052;-70
2024/01/04 04:27:58;;;;;;;2.50;0.80;;;;;;;4.67;100.00;92859.94;5067735;28;21013;-69
2024/01/04 04:30:25;;;;;;;1.98;1.00;;;;;;;4.65;100.00;92875.88;5069946;28;20411;-69
2024/01/04 04:32:51;;;;;;;2.37;1.07;;;;;;;4.68;100.00;92880.50;5072081;28;20481;-67
2024/01/04 04:35:18;;;;;;;2.03;0.88;;;;;;;4.69;100.00;92882.06;5071915;28;20126;-70
2024/01/04 04:37:45;;;;;;;3.10;1.00;;;;;;;4.63;100.00;92877.44;5072057;28;20064;-70
2024/01/04 04:40:12;;;;;;;2.25;0.60;;;;;;;4.62;100.00;92875.91;5045299;28;20056;-69
2024/01/04 04:42:41;;;;;;;2.65;0.85;;;;;;;4.68;100.00;92882.47;5071451;28;20409;-70
2024/01/04 04:45:08;;;;;;;3.10;0.90;;;;;;;4.76;100.00;92875.78;5071890;28;20045;-70
2024/01/04 04:47:35;;;;;;;3.63;0.80;;;;;;;4.67;100.00;92892.56;5071607;28;20101;-69
2024/01/04 04:50:03;;;;;;;3.75;1.00;;;;;;;4.68;100.00;92880.50;5071196;28;20041;-70
2024/01/04 04:52:30;;;;;;;2.05;0.80;;;;;;;4.72;100.00;92894.81;5071597;28;20040;-70
2024/01/04 04:54:57;;;;;;;2.45;0.88;;;;;;;4.63;100.00;92891.03;5071049;28;20044;-70
2024/01/04 04:57:23;;;;;;;4.03;0.80;;;;;;;4.59;100.00;92897.28;5071648;28;20040;-70
2024/01/04 04:59:50;;;;;;;2.53;0.70;;;;;;;4.57;100.00;92904.31;5071630;28;20041;-69
2024/01/04 05:02:18;;;;;;;4.38;0.93;;;;;;;4.52;100.00;92910.94;5069368;28;20104;-70
2024/01/04 05:04:45;;;;;;;6.47;1.30;;;;;;;4.55;100.00;92920.25;5071117;28;20431;-69
2024/01/04 05:07:12;;;;;;;3.55;1.30;;;;;;;4.56;100.00;92913.63;5071027;28;20380;-70
2024/01/04 05:09:39;;;;;;;2.37;1.10;;;;;;;4.60;100.00;92926.00;5070789;28;20056;-70
2024/01/04 05:12:06;;;;;;;3.30;0.75;;;;;;;4.55;100.00;92922.97;5070784;28;20067;-69
2024/01/04 05:14:33;;;;;;;3.17;1.10;;;;;;;4.62;100.00;92930.25;5071276;28;20690;-70
2024/01/04 05:17:00;;;;;;;5.78;0.77;;;;;;;4.63;100.00;92916.28;5067996;28;20044;-69
2024/01/04 05:19:27;;;;;;;3.95;1.65;;;;;;;4.59;100.00;92910.88;5052578;28;20049;-69
2024/01/04 05:21:54;;;;;;;6.87;2.40;;;;;;;4.59;100.00;92929.91;5060697;28;20056;-69
2024/01/04 05:24:20;;;;;;;2.85;0.90;;;;;;;4.68;100.00;92934.09;5071196;28;20047;-69
2024/01/04 05:26:47;;;;;;;4.07;1.40;;;;;;;4.68;100.00;92934.84;5070797;28;20109;-68
2024/01/04 05:29:14;;;;;;;7.75;2.40;;;;;;;4.68;100.00;92942.25;5070708;28;20109;-68
2024/01/04 05:31:41;;;;;;;20.05;7.65;;;;;;;4.72;100.00;92935.59;5069635;28;20055;-69
2024/01/04 05:34:07;;;;;;;3.83;1.10;;;;;;;4.74;100.00;92933.25;5070378;28;20709;-67
2024/01/04 05:36:35;;;;;;;4.70;2.05;;;;;;;4.79;100.00;92957.28;5070943;28;20102;-68
2024/01/04 05:39:03;;;;;;;2.20;0.80;;;;;;;4.73;100.00;92960.84;5102306;28;20055;-68
2024/01/04 05:41:30;;;;;;;29.02;14.15;;;;;;;4.58;100.00;92963.66;5069445;28;20509;-69
2024/01/04 05:43:56;;;;;;;5.75;2.47;;;;;;;4.57;100.00;92972.22;5070075;28;20599;-68
2024/01/04 05:46:23;;;;;;;28.60;13.77;;;;;;;4.54;100.00;92975.75;5044391;28;20490;-68
2024/01/04 05:48:50;;;;;;;7.57;3.15;;;;;;;4.45;100.00;92980.84;5069919;28;20435;-68
2024/01/04 05:51:17;;;;;;;7.82;3.53;;;;;;;4.40;100.00;92990.97;5043901;28;20912;-67
2024/01/04 05:53:44;;;;;;;43.35;18.70;;;;;;;4.31;100.00;92998.81;5070261;28;20493;-68
2024/01/04 05:56:11;;;;;;;19.25;8.88;;;;;;;4.32;100.00;93018.56;5069752;28;20699;-68
2024/01/04 05:58:37;;;;;;;5.27;1.40;;;;;;;4.37;100.00;93020.88;5070555;28;20052;-69
2024/01/04 06:01:05;;;;;;;4.93;2.60;;;;;;;4.36;100.00;93011.94;5069615;28;20048;-68
2024/01/04 06:03:31;;;;;;;19.38;11.25;;;;;;;4.44;100.00;93012.69;5044098;28;20485;-68
2024/01/04 06:05:58;;;;;;;3.78;1.92;;;;;;;4.29;100.00;93016.66;5069566;28;20052;-68
2024/01/04 06:08:25;;;;;;;3.92;2.38;;;;;;;4.32;100.00;93022.06;5069941;28;20040;-69
2024/01/04 06:10:52;;;;;;;8.60;5.07;;;;;;;4.37;100.00;93026.31;5069215;28;20044;-68
2024/01/04 06:13:21;;;;;;;3.38;1.80;;;;;;;4.37;100.00;93023.59;5102915;28;20040;-68
2024/01/04 06:15:47;;;;;;;2.08;0.90;;;;;;;4.32;100.00;93015.88;5069926;28;20041;-69
2024/01/04 06:18:14;;;;;;;2.22;0.80;;;;;;;4.34;100.00;93030.59;5069689;28;20378;-68
2024/01/04 06:20:41;;;;;;;2.30;1.00;;;;;;;4.10;100.00;93036.94;5051868;28;20048;-69
2024/01/04 06:23:08;;;;;;;2.97;0.80;;;;;;;3.96;100.00;93032.34;5069415;28;20045;-68
2024/01/04 06:25:34;;;;;;;1.92;0.70;;;;;;;4.02;100.00;93047.03;5069867;28;20045;-68
2024/01/04 06:28:01;;;;;;;2.10;0.95;;;;;;;4.05;100.00;93051.69;5069000;28;20524;-68
2024/01/04 06:30:28;;;;;;;2.25;0.70;;;;;;;4.11;100.00;93057.50;5068409;28;20032;-68
2024/01/04 06:32:55;;;;;;;3.65;1.23;;;;;;;4.11;100.00;93046.63;5069236;28;20040;-68
2024/01/04 06:35:22;;;;;;;2.80;0.80;;;;;;;3.99;100.00;93035.03;5069425;28;20051;-68
2024/01/04 06:37:49;;;;;;;2.65;0.75;;;;;;;4.03;100.00;93042.41;5068088;28;20499;-68
2024/01/04 06:40:16;;;;;;;3.72;1.27;;;;;;;3.95;100.00;93052.53;5069403;28;20041;-68
2024/01/04 06:42:44;;;;;;;3.13;1.10;;;;;;;3.88;100.00;93057.97;5069437;28;20048;-69
2024/01/04 06:45:11;;;;;;;2.50;0.90;;;;;;;3.90;100.00;93059.13;5068395;28;20153;-68
2024/01/04 06:47:38;;;;;;;2.80;1.50;;;;;;;3.94;100.00;93057.19;5069666;28;20036;-69
2024/01/04 06:50:06;;;;;;;4.43;1.10;;;;;;;3.96;100.00;93062.19;5068223;28;20067;-68
2024/01/04 06:52:44;;;;;;;2.72;1.02;;;;;;;4.03;100.00;93066.84;5067394;28;20051;-68
2024/01/04 06:55:12;;;;;;;3.97;1.30;;;;;;;4.02;100.00;93057.16;5068671;28;20047;-68
2024/01/04 06:57:39;;;;;;;4.82;1.88;;;;;;;4.04;100.00;93071.09;5069554;28;20385;-68
2024/01/04 07:00:09;;;;;;;3.13;1.10;;;;;;;4.11;100.00;93062.94;5066532;28;20378;-68
2024/01/04 07:02:38;;;;;;;3.20;1.20;;;;;;;4.03;100.00;93072.28;5050744;28;20053;-68
2024/01/04 07:05:06;;;;;;;11.88;3.47;;;;;;;4.06;100.00;93074.97;5057579;28;20082;-68
2024/01/04 07:07:34;;;;;;;3.90;1.15;;;;;;;4.12;100.00;93075.31;5068661;28;20189;-68
2024/01/04 07:10:02;;;;;;;8.35;3.22;;;;;;;4.15;100.00;93072.59;5068564;28;20052;-68
2024/01/04 07:12:29;;;;;;;8.43;3.07;;;;;;;4.23;100.00;93078.00;5068703;28;20055;-68
2024/01/04 07:14:56;;;;;;;7.03;2.88;;;;;;;4.18;100.00;93084.59;5068183;28;20057;-67
2024/01/04 07:17:23;;;;;;;7.00;2.60;;;;;;;4.26;100.00;93096.22;5067129;28;20048;-68
2024/01/04 07:19:50;;;;;;;3.97;1.60;;;;;;;4.32;100.00;93087.25;5053013;28;20041;-68
2024/01/04 07:22:17;;;;;;;3.10;1.23;;;;;;;4.36;100.00;93088.00;5053714;28;20489;-68
2024/01/04 07:24:44;;;;;;;4.70;1.80;;;;;;;4.29;100.00;93093.47;5066979;28;20041;-68
2024/01/04 07:27:10;;;;;;;4.18;1.60;;;;;;;4.31;100.00;93103.97;5068689;28;20054;-67
2024/01/04 07:29:38;;;;;;;2.95;1.17;;;;;;;4.32;100.00;93094.63;5068549;28;20048;-69
2024/01/04 07:32:05;;;;;;;2.22;1.10;;;;;;;4.36;100.00;93109.72;5067820;28;20074;-68
2024/01/04 07:34:36;;;;;;;3.60;1.30;;;;;;;4.39;100.00;93108.19;5068756;28;20067;-69
2024/01/04 07:37:03;;;;;;;6.57;1.67;;;;;;;4.36;100.00;93108.97;5067927;28;20051;-68
2024/01/04 07:39:30;;;;;;;4.50;1.20;;;;;;;4.49;100.00;93114.75;5068293;28;20040;-67
2024/01/04 07:41:57;;;;;;;6.03;1.80;;;;;;;4.45;100.00;93105.81;5067560;28;20340;-68
2024/01/04 07:44:24;;;;;;;4.53;1.63;;;;;;;4.42;100.00;93115.53;5100937;28;20187;-68
2024/01/04 07:46:51;;;;;;;5.55;1.30;;;;;;;4.42;100.00;93101.94;5067113;28;20045;-68
2024/01/04 07:49:17;;;;;;;6.60;2.93;;;;;;;4.48;100.00;93111.22;5040695;28;20608;-68
2024/01/04 07:51:44;;;;;;;6.00;2.58;;;;;;;4.48;100.00;93110.47;5068161;28;20052;-68
2024/01/04 07:54:11;;;;;;;5.22;2.22;;;;;;;4.52;100.00;93113.94;5066229;28;20083;-69
2024/01/04 07:56:38;;;;;;;5.15;1.50;;;;;;;4.48;100.00;93113.19;5068851;28;20105;-69
2024/01/04 07:59:05;;;;;;;5.47;2.13;;;;;;;4.51;100.00;93120.56;5067235;28;20056;-69
2024/01/04 08:01:32;;;;;;;2.40;1.20;;;;;;;4.49;100.00;93117.47;5068508;28;20049;-70
2024/01/04 08:03:59;;;;;;;3.63;1.35;;;;;;;4.42;100.00;93122.91;5067316;28;20109;-69
2024/01/04 08:06:26;;;;;;;4.50;2.20;;;;;;;4.40;100.00;93117.88;5068564;28;20117;-69
2024/01/04 08:08:53;;;;;;;4.63;1.35;;;;;;;4.49;100.00;93133.75;5066880;28;20037;-68
2024/01/04 08:11:20;;;;;;;6.25;2.50;;;;;;;4.45;100.00;93132.97;5068354;28;20047;-69
2024/01/04 08:13:47;;;;;;;5.67;2.00;;;;;;;4.53;100.00;93134.50;5067884;28;20044;-69
2024/01/04 08:16:13;;;;;;;3.97;1.42;;;;;;;4.56;100.00;93128.28;5067985;28;20419;-69
2024/01/04 08:18:40;;;;;;;5.50;1.98;;;;;;;4.51;100.00;93136.84;5068054;28;20047;-69
2024/01/04 08:21:07;;;;;;;4.90;1.70;;;;;;;4.49;100.00;93147.34;5067462;28;20420;-69
2024/01/04 08:23:34;;;;;;;9.48;2.50;;;;;;;4.54;100.00;93141.47;5068328;28;20063;-70
2024/01/04 08:26:05;;;;;;;6.60;2.10;;;;;;;4.56;100.00;93139.91;5067505;28;20044;-69
2024/01/04 08:28:31;;;;;;;5.38;1.80;;;;;;;4.45;100.00;93143.84;5067888;28;20075;-70
2024/01/04 08:30:59;;;;;;;9.10;3.22;;;;;;;4.51;100.00;93153.16;5067294;28;20105;-69
2024/01/04 08:33:29;;;;;;;4.38;1.10;;;;;;;4.52;100.00;93157.41;5067415;28;20051;-71
2024/01/04 08:35:56;;;;;;;6.28;2.03;;;;;;;4.55;100.00;93146.53;5067364;28;20044;-71
2024/01/04 08:38:23;;;;;;;4.80;1.30;;;;;;;4.42;100.00;93145.41;5067658;28;20561;-71
2024/01/04 08:40:49;;;;;;;5.90;1.58;;;;;;;4.47;100.00;93152.41;5066514;28;20045;-70
2024/01/04 08:43:16;;;;;;;4.90;1.67;;;;;;;4.61;100.00;93146.91;5065526;28;20059;-71
2024/01/04 08:45:43;;;;;;;5.97;1.50;;;;;;;4.77;100.00;93165.44;5068364;28;20499;-69
2024/01/04 08:48:10;;;;;;;4.03;1.50;;;;;;;5.38;100.00;93165.03;5055296;28;20045;-69
2024/01/04 08:50:37;;;;;;;3.20;0.83;;;;;;;6.05;100.00;93152.00;5047721;28;20597;-69
2024/01/04 08:53:04;;;;;;;6.47;1.67;;;;;;;6.95;100.00;93146.25;5066001;28;20048;-69
2024/01/04 08:55:32;;;;;;;2.72;0.90;;;;;;;7.72;100.00;93152.09;5067874;28;20699;-69
2024/01/04 08:57:59;;;;;;;4.93;0.90;;;;;;;7.44;100.00;93158.78;5067210;28;20412;-69
2024/01/04 09:00:25;;;;;;;5.47;1.42;;;;;;;6.90;100.00;93154.09;5067783;28;20033;-69
2024/01/04 09:02:52;;;;;;;2.90;0.90;;;;;;;6.48;100.00;93164.38;5066789;28;20077;-68
2024/01/04 09:05:19;;;;;;;3.75;1.00;;;;;;;6.06;100.00;93152.81;5068213;28;20049;-70
2024/01/04 09:07:46;;;;;;;3.40;1.10;;;;;;;5.60;100.00;93174.56;5067602;28;20053;-68
2024/01/04 09:10:13;;;;;;;3.53;1.02;;;;;;;5.53;100.00;93171.94;5100108;28;20040;-68
2024/01/04 09:12:40;;;;;;;4.57;1.30;;;;;;;5.57;100.00;93172.66;5067221;28;20044;-69
2024/01/04 09:15:10;;;;;;;6.27;1.27;;;;;;;5.67;100.00;93170.25;5066756;28;20489;-69
2024/01/04 09:18:38;;;;;;;5.78;1.30;;;;;;;6.13;100.00;93172.53;5065828;28;21171;-72
2024/01/04 09:21:05;;;;;;;4.93;1.30;;;;;;;7.30;100.00;93168.72;5064772;28;20055;-71
2024/01/04 09:23:31;;;;;;;4.00;1.27;;;;;;;7.92;100.00;93174.75;5065651;28;20159;-69
2024/01/04 09:26:02;;;;;;;4.25;0.95;;;;;;;6.55;100.00;93178.69;5064840;28;20400;-70
2024/01/04 09:28:29;;;;;;;4.57;1.10;;;;;;;6.58;100.00;93171.69;5065527;28;20053;-69
2024/01/04 09:30:56;;;;;;;2.95;0.85;;;;;;;6.61;100.00;93176.28;5065058;28;20036;-66
2024/01/04 09:33:24;;;;;;;4.47;1.20;;;;;;;8.20;100.00;93178.19;5064869;28;20109;-70
2024/01/04 09:35:51;;;;;;;3.60;1.10;;;;;;;8.50;100.00;93177.28;5064994;28;20049;-67
2024/01/04 09:38:19;;;;;;;4.18;1.00;;;;;;;10.74;100.00;93170.88;5063133;28;20727;-67
2024/01/04 09:40:51;;;;;;;3.78;0.95;;;;;;;10.64;100.00;93169.22;5065040;28;20053;-69
2024/01/04 09:43:20;;;;;;;4.10;0.85;;;;;;;12.57;94.81;93162.44;5038532;28;20742;-65
2024/01/04 09:45:48;;;;;;;3.45;0.90;;;;;;;13.57;80.17;93175.34;5064073;28;20045;-68
2024/01/04 09:48:20;;;;;;;3.40;0.83;;;;;;;12.26;84.39;93170.59;5063287;28;20049;-70
2024/01/04 09:50:57;;;;;;;3.58;0.70;;;;;;;10.62;97.87;93182.59;5058636;28;20460;-71
2024/01/04 09:53:25;;;;;;;3.58;0.88;;;;;;;10.00;100.00;93175.94;5044299;28;20049;-69
2024/01/04 09:55:53;;;;;;;3.22;1.10;;;;;;;10.55;100.00;93176.09;5057244;28;20055;-65
2024/01/04 09:58:23;;;;;;;3.63;1.00;;;;;;;10.46;100.00;93169.69;5064288;28;20057;-70
2024/01/04 10:00:50;;;;;;;3.17;0.80;;;;;;;10.92;97.51;93178.63;5064764;28;20045;-63
2024/01/04 10:03:18;;;;;;;4.93;0.80;;;;;;;11.88;90.49;93172.19;5063549;28;20220;-63
2024/01/04 10:05:46;;;;;;;3.03;1.20;;;;;;;11.15;95.48;93183.84;5065381;28;20063;-64
2024/01/04 10:08:36;;;;;;;3.45;0.77;;;;;;;12.67;87.89;93183.31;5055441;28;20387;-63
2024/01/04 10:11:16;;;;;;;3.95;1.50;;;;;;;12.81;83.57;93184.06;5044525;28;20045;-64
2024/01/04 10:13:43;;;;;;;2.60;0.80;;;;;;;11.55;94.73;93171.66;5045691;28;20095;-64
2024/01/04 10:16:11;;;;;;;3.95;1.13;;;;;;;13.23;77.64;93169.94;5043591;28;20076;-65
2024/01/04 10:18:41;;;;;;;2.10;0.93;;;;;;;14.66;70.15;93160.72;5045152;28;20087;-65
2024/01/04 10:21:09;;;;;;;3.20;1.10;;;;;;;16.31;62.90;93172.56;5043937;28;20056;-64
2024/01/04 10:23:36;;;;;;;3.47;0.80;;;;;;;18.00;55.12;93181.22;5044853;28;20397;-65
2024/01/04 10:26:11;;;;;;;2.50;0.70;;;;;;;12.45;75.09;93190.78;5047004;28;20088;-65
2024/01/04 10:28:39;;;;;;;4.35;0.80;;;;;;;12.84;78.24;93188.66;5038123;28;20090;-66
2024/01/04 10:31:08;;;;;;;2.42;0.70;;;;;;;13.94;71.08;93196.75;5030939;28;20059;-66
2024/01/04 10:33:37;;;;;;;3.22;0.82;;;;;;;12.88;76.00;93197.56;5033454;28;20440;-65
2024/01/04 10:36:11;;;;;;;2.90;1.00;;;;;;;12.64;77.20;93191.72;5031733;28;20402;-65
2024/01/04 10:38:39;;;;;;;2.93;0.90;;;;;;;12.47;77.89;93196.63;5038776;28;20464;-65
2024/01/04 10:41:05;;;;;;;3.25;1.15;;;;;;;11.64;89.56;93196.50;5028771;28;20037;-65
2024/01/04 10:43:33;;;;;;;2.90;0.90;;;;;;;11.55;83.06;93207.38;5030898;28;20042;-66
2024/01/04 10:46:09;;;;;;;3.38;0.95;;;;;;;11.67;84.12;93201.13;5029394;28;20058;-66
2024/01/04 10:48:37;;;;;;;3.03;1.10;;;;;;;11.88;86.86;93207.94;5030756;28;20079;-66
2024/01/04 10:51:06;;;;;;;2.90;1.00;;;;;;;13.25;76.45;93206.84;5029802;28;20050;-66
2024/01/04 10:53:37;;;;;;;3.67;0.90;;;;;;;14.25;68.13;93202.22;5030555;28;20049;-65
2024/01/04 10:56:05;;;;;;;3.58;0.77;;;;;;;14.22;70.54;93197.59;5029904;28;20041;-65
2024/01/04 10:58:36;;;;;;;2.00;0.82;;;;;;;13.19;74.44;93198.38;5030458;28;20578;-65
2024/01/04 11:01:04;;;;;;;3.40;0.82;;;;;;;11.72;81.29;93194.31;5029329;28;20044;-65
2024/01/04 11:03:31;;;;;;;3.87;0.70;;;;;;;11.28;92.91;93211.31;5030719;28;20048;-64
2024/01/04 11:06:00;;;;;;;3.65;1.00;;;;;;;10.11;100.00;93219.50;5029460;28;20319;-65
2024/01/04 11:08:27;;;;;;;2.85;1.00;;;;;;;10.28;100.00;93211.25;5024502;28;20422;-66
2024/01/04 11:10:54;;;;;;;5.07;1.30;;;;;;;9.26;100.00;93214.06;5021905;28;20067;-64
2024/01/04 11:13:21;;;;;;;4.45;1.48;;;;;;;8.77;100.00;93220.13;5030470;28;20464;-65
2024/01/04 11:15:51;;;;;;;6.57;1.10;;;;;;;9.35;100.00;93214.25;5030113;28;20045;-65
2024/01/04 11:18:49;;;;;;;5.90;1.27;;;;;;;8.81;100.00;93212.59;5027951;28;20045;-65
2024/01/04 11:21:46;;;;;;;4.53;1.20;;;;;;;8.78;100.00;93227.91;5019233;28;20071;-65
2024/01/04 11:24:33;;;;;;;4.40;1.13;;;;;;;9.69;100.00;93213.09;5025144;28;20049;-65
2024/01/04 11:27:00;;;;;;;3.58;1.30;;;;;;;10.51;100.00;93210.31;5029521;28;20053;-65
2024/01/04 11:29:27;;;;;;;4.13;1.20;;;;;;;11.98;94.93;93195.84;5030166;28;20045;-65
2024/01/04 11:31:59;;;;;;;3.05;0.90;;;;;;;12.48;90.31;93203.69;5029026;28;20037;-65
2024/01/04 11:34:26;;;;;;;2.00;0.77;;;;;;;11.28;93.43;93191.31;5030096;28;20049;-66